Weather at Fly Sin City #2 Heliport

Public forecast

Using degrees Fahrenheit for public forecast. Weather courtesy of forecast.io.

Closest aviation weather report (METAR) to Fly Sin City #2 Heliport

Closest report is Henderson Executive Airport, 21.8 nm (40.3 km) ENE. Retrieved 2022/01/24 09:56 UTC (49 minutes ago):

KHND 240956Z AUTO 19007KT 10SM CLR 04/M08 A3016 RMK AO2 SLP232 T00441083

Closest aviation forecast (TAF) to Fly Sin City #2 Heliport

Closest forecast is Henderson Executive Airport, 21.8 nm (40.3 km) ENE. Retrieved 2022/01/24 06:22 UTC (4 hours ago):

TAF KHND 240520Z 2406/2506 18006KT P6SM SKC FM241600 VRB04KT P6SM SKC FM250300 18006KT P6SM FEW250